Estación Meteorológica Peña el Pijo (Robertgarden) [ 09/25/18 06:43:28 CEST ]

Fecha Hora Presion(HPa) Temp (°C) Humedad % Rocio (°C) Viento ( m/s) Direccion Lluvia 1Hora(mm) Lluvia 24H(mm) LLuvia Total(mm)
2018-May-01 01:01:53 1005.300 3.6 73 -0.8         204.61
2018-May-01 02:01:40 1005.000 2.8 76 -1.0         204.61
2018-May-01 03:05:09 1004.600 1.7 77 -1.9         204.61
2018-May-01 04:01:53 1004.200 0.8 79 -2.5         204.61
2018-May-01 05:01:52 1003.900 1.3 81 -1.6         204.61
2018-May-01 06:01:37 1003.700 0.8 82 -2.0         204.61
2018-May-01 07:01:50 1003.800 1.3 83 -1.3         204.61
2018-May-01 08:01:53 1004.000 1.8 84 -0.7         204.61
2018-May-01 09:01:50 1004.000 3.8 84 1.3         204.61
2018-May-01 10:01:48 1004.000 8.8 72 4.0         204.61
2018-May-01 11:01:46 1004.000 12.1 49 1.7         204.61
2018-May-01 12:01:40 1004.000 12.3 44 0.3         204.61
2018-May-01 13:01:41 1003.700 10.9 47 -0.0         204.61
2018-May-01 14:01:37 1003.300 12.2 43 -0.1         204.61
2018-May-01 15:01:46 1003.000 13.6 46 2.4     0.51 0.51 205.12
2018-May-01 16:01:54 1003.600 9.8 49 -0.4       0.51 205.12
2018-May-01 17:01:31 1003.700 9.5 56 1.1       0.51 205.12
2018-May-01 18:01:33 1003.500 10.5 54 1.4 1.5 WNW   0.51 205.12
2018-May-01 19:01:27 1003.100 12.7 45 1.2       0.51 205.12
2018-May-01 20:01:39 1003.200 10.9 48 0.3       0.51 205.12
2018-May-01 21:01:24 1004.000 8.9 54 0.0       0.51 205.12
2018-May-01 22:01:20 1004.400 7.3 60 0.3       0.51 205.12
2018-May-01 23:01:38 1005.100 5.0 65 -1.1       0.51 205.12

Temperatura Máxima:13°    Temperatura Mínima:
Presión Máxima:1005.300 Hpa    Presión Mínima:1003.000 Hpa


Volver